sensor_id;sensor_type;location;lat;lon;timestamp;temperature;humidity
3684;DHT22;1858;48.716;9.648;2022-09-01T00:03:20;16.10;1.00
3684;DHT22;1858;48.716;9.648;2022-09-01T00:09:02;16.10;1.00
3684;DHT22;1858;48.716;9.648;2022-09-01T00:11:29;16.10;1.00
3684;DHT22;1858;48.716;9.648;2022-09-01T00:13:57;16.00;1.00
3684;DHT22;1858;48.716;9.648;2022-09-01T00:19:14;15.80;1.00
3684;DHT22;1858;48.716;9.648;2022-09-01T00:21:42;15.70;1.00
3684;DHT22;1858;48.716;9.648;2022-09-01T00:26:57;15.60;99.90
3684;DHT22;1858;48.716;9.648;2022-09-01T00:29:25;15.70;99.90
3684;DHT22;1858;48.716;9.648;2022-09-01T00:31:53;15.70;79.90
3684;DHT22;1858;48.716;9.648;2022-09-01T00:34:20;15.50;99.90
3684;DHT22;1858;48.716;9.648;2022-09-01T00:36:48;15.40;99.90
3684;DHT22;1858;48.716;9.648;2022-09-01T00:39:16;15.30;99.90
3684;DHT22;1858;48.716;9.648;2022-09-01T00:41:46;15.30;1.00
3684;DHT22;1858;48.716;9.648;2022-09-01T00:44:16;15.40;1.00
3684;DHT22;1858;48.716;9.648;2022-09-01T00:46:46;15.30;1.00
3684;DHT22;1858;48.716;9.648;2022-09-01T00:49:20;15.10;1.00
3684;DHT22;1858;48.716;9.648;2022-09-01T00:51:48;14.90;1.00
3684;DHT22;1858;48.716;9.648;2022-09-01T00:54:23;14.70;1.00
3684;DHT22;1858;48.716;9.648;2022-09-01T00:56:45;14.70;99.90
3684;DHT22;1858;48.716;9.648;2022-09-01T00:59:13;14.60;99.90
3684;DHT22;1858;48.716;9.648;2022-09-01T01:04:29;14.60;1.00
3684;DHT22;1858;48.716;9.648;2022-09-01T01:06:57;14.80;1.00
3684;DHT22;1858;48.716;9.648;2022-09-01T01:09:28;14.90;99.90
3684;DHT22;1858;48.716;9.648;2022-09-01T01:14:45;14.80;99.90
3684;DHT22;1858;48.716;9.648;2022-09-01T01:20:01;14.70;99.90
3684;DHT22;1858;48.716;9.648;2022-09-01T01:28:33;14.70;23.40
3684;DHT22;1858;48.716;9.648;2022-09-01T01:31:05;14.50;53.40
3684;DHT22;1858;48.716;9.648;2022-09-01T01:33:36;14.50;99.90
3684;DHT22;1858;48.716;9.648;2022-09-01T01:36:08;14.40;99.90
3684;DHT22;1858;48.716;9.648;2022-09-01T01:38:39;14.40;99.90
3684;DHT22;1858;48.716;9.648;2022-09-01T01:41:27;14.30;99.90
3684;DHT22;1858;48.716;9.648;2022-09-01T01:43:56;14.20;99.90
3684;DHT22;1858;48.716;9.648;2022-09-01T01:46:24;14.10;1.00
3684;DHT22;1858;48.716;9.648;2022-09-01T01:48:52;14.10;1.00
3684;DHT22;1858;48.716;9.648;2022-09-01T01:51:21;14.10;1.00
3684;DHT22;1858;48.716;9.648;2022-09-01T01:53:54;14.10;1.00
3684;DHT22;1858;48.716;9.648;2022-09-01T01:56:22;14.10;1.00
3684;DHT22;1858;48.716;9.648;2022-09-01T01:58:51;14.00;1.00
3684;DHT22;1858;48.716;9.648;2022-09-01T02:01:26;14.00;99.90
3684;DHT22;1858;48.716;9.648;2022-09-01T02:03:50;13.90;99.90
3684;DHT22;1858;48.716;9.648;2022-09-01T02:06:22;13.90;99.90
3684;DHT22;1858;48.716;9.648;2022-09-01T02:08:54;13.70;99.90
3684;DHT22;1858;48.716;9.648;2022-09-01T02:11:26;13.70;99.90
3684;DHT22;1858;48.716;9.648;2022-09-01T02:13:54;13.50;99.90
3684;DHT22;1858;48.716;9.648;2022-09-01T02:19:09;13.50;99.90
3684;DHT22;1858;48.716;9.648;2022-09-01T02:21:37;13.40;99.90
3684;DHT22;1858;48.716;9.648;2022-09-01T02:24:07;13.40;1.00
3684;DHT22;1858;48.716;9.648;2022-09-01T02:29:23;13.30;1.00
3684;DHT22;1858;48.716;9.648;2022-09-01T02:34:39;13.20;1.00
3684;DHT22;1858;48.716;9.648;2022-09-01T02:37:06;13.20;1.00
3684;DHT22;1858;48.716;9.648;2022-09-01T02:39:34;13.10;1.00
3684;DHT22;1858;48.716;9.648;2022-09-01T02:44:50;13.20;1.00
3684;DHT22;1858;48.716;9.648;2022-09-01T02:47:18;13.20;1.00
3684;DHT22;1858;48.716;9.648;2022-09-01T02:49:46;13.20;1.00
3684;DHT22;1858;48.716;9.648;2022-09-01T02:52:13;13.20;1.00
3684;DHT22;1858;48.716;9.648;2022-09-01T02:54:42;13.20;1.00
3684;DHT22;1858;48.716;9.648;2022-09-01T02:57:12;13.30;1.00
3684;DHT22;1858;48.716;9.648;2022-09-01T02:59:39;13.40;1.00
3684;DHT22;1858;48.716;9.648;2022-09-01T03:02:08;13.70;1.00
3684;DHT22;1858;48.716;9.648;2022-09-01T03:04:36;13.80;1.00
3684;DHT22;1858;48.716;9.648;2022-09-01T03:07:04;14.00;1.00
3684;DHT22;1858;48.716;9.648;2022-09-01T03:09:32;14.20;1.00
3684;DHT22;1858;48.716;9.648;2022-09-01T03:12:01;14.40;1.00
3684;DHT22;1858;48.716;9.648;2022-09-01T03:14:29;14.60;1.00
3684;DHT22;1858;48.716;9.648;2022-09-01T03:16:57;14.90;1.00
3684;DHT22;1858;48.716;9.648;2022-09-01T03:19:26;15.10;1.00
3684;DHT22;1858;48.716;9.648;2022-09-01T03:21:55;15.30;1.00
3684;DHT22;1858;48.716;9.648;2022-09-01T03:24:24;15.30;1.00
3684;DHT22;1858;48.716;9.648;2022-09-01T03:26:52;15.50;99.90
3684;DHT22;1858;48.716;9.648;2022-09-01T03:29:21;15.60;99.90
3684;DHT22;1858;48.716;9.648;2022-09-01T03:31:49;15.40;99.90
3684;DHT22;1858;48.716;9.648;2022-09-01T03:34:16;15.30;91.50
3684;DHT22;1858;48.716;9.648;2022-09-01T03:36:45;15.20;56.80
3684;DHT22;1858;48.716;9.648;2022-09-01T03:39:16;15.20;54.10
3684;DHT22;1858;48.716;9.648;2022-09-01T03:41:43;15.20;36.00
3684;DHT22;1858;48.716;9.648;2022-09-01T03:44:12;15.30;68.20
3684;DHT22;1858;48.716;9.648;2022-09-01T03:46:40;15.30;1.00
3684;DHT22;1858;48.716;9.648;2022-09-01T03:54:34;15.50;99.90
3684;DHT22;1858;48.716;9.648;2022-09-01T03:57:01;15.40;99.90
3684;DHT22;1858;48.716;9.648;2022-09-01T03:59:31;15.40;99.90
3684;DHT22;1858;48.716;9.648;2022-09-01T04:01:58;15.40;1.00
3684;DHT22;1858;48.716;9.648;2022-09-01T04:04:28;15.40;1.00
3684;DHT22;1858;48.716;9.648;2022-09-01T04:06:57;15.40;1.00
3684;DHT22;1858;48.716;9.648;2022-09-01T04:09:28;15.50;1.00
3684;DHT22;1858;48.716;9.648;2022-09-01T04:11:56;15.60;31.90
3684;DHT22;1858;48.716;9.648;2022-09-01T04:14:23;15.60;1.00
3684;DHT22;1858;48.716;9.648;2022-09-01T04:16:53;15.70;1.00
3684;DHT22;1858;48.716;9.648;2022-09-01T04:19:38;15.80;1.00
3684;DHT22;1858;48.716;9.648;2022-09-01T04:22:07;15.90;1.00
3684;DHT22;1858;48.716;9.648;2022-09-01T04:24:37;16.00;1.00
3684;DHT22;1858;48.716;9.648;2022-09-01T04:27:06;16.10;99.90
3684;DHT22;1858;48.716;9.648;2022-09-01T04:29:35;16.00;99.90
3684;DHT22;1858;48.716;9.648;2022-09-01T04:32:04;16.00;99.90
3684;DHT22;1858;48.716;9.648;2022-09-01T04:34:32;16.00;99.90
3684;DHT22;1858;48.716;9.648;2022-09-01T04:37:07;16.00;99.90
3684;DHT22;1858;48.716;9.648;2022-09-01T04:39:32;16.10;99.90
3684;DHT22;1858;48.716;9.648;2022-09-01T04:42:02;16.20;99.90
3684;DHT22;1858;48.716;9.648;2022-09-01T04:44:31;16.20;99.90
3684;DHT22;1858;48.716;9.648;2022-09-01T04:49:47;16.20;99.90
3684;DHT22;1858;48.716;9.648;2022-09-01T04:52:14;16.20;99.90
3684;DHT22;1858;48.716;9.648;2022-09-01T04:54:42;16.20;99.90
3684;DHT22;1858;48.716;9.648;2022-09-01T04:57:10;16.20;99.90
3684;DHT22;1858;48.716;9.648;2022-09-01T04:59:39;16.20;99.90
3684;DHT22;1858;48.716;9.648;2022-09-01T05:02:06;16.20;99.90
3684;DHT22;1858;48.716;9.648;2022-09-01T05:04:35;16.10;99.90
3684;DHT22;1858;48.716;9.648;2022-09-01T05:07:03;16.10;99.90
3684;DHT22;1858;48.716;9.648;2022-09-01T05:09:32;16.00;99.90
3684;DHT22;1858;48.716;9.648;2022-09-01T05:17:38;16.10;99.90
3684;DHT22;1858;48.716;9.648;2022-09-01T05:20:06;16.10;99.90
3684;DHT22;1858;48.716;9.648;2022-09-01T05:25:43;16.20;99.90
3684;DHT22;1858;48.716;9.648;2022-09-01T05:28:12;16.20;99.90
3684;DHT22;1858;48.716;9.648;2022-09-01T05:30:39;16.20;99.90
3684;DHT22;1858;48.716;9.648;2022-09-01T05:33:09;16.30;99.90
3684;DHT22;1858;48.716;9.648;2022-09-01T05:35:38;16.40;6.80
3684;DHT22;1858;48.716;9.648;2022-09-01T05:41:00;16.50;1.00
3684;DHT22;1858;48.716;9.648;2022-09-01T05:43:29;16.70;1.00
3684;DHT22;1858;48.716;9.648;2022-09-01T05:45:57;16.70;1.00
3684;DHT22;1858;48.716;9.648;2022-09-01T05:48:26;16.70;1.00
3684;DHT22;1858;48.716;9.648;2022-09-01T05:50:56;16.80;99.90
3684;DHT22;1858;48.716;9.648;2022-09-01T05:53:25;16.80;99.90
3684;DHT22;1858;48.716;9.648;2022-09-01T05:58:41;16.90;99.90
3684;DHT22;1858;48.716;9.648;2022-09-01T06:01:09;16.90;99.90
3684;DHT22;1858;48.716;9.648;2022-09-01T06:03:38;17.00;99.90
3684;DHT22;1858;48.716;9.648;2022-09-01T06:06:07;17.00;99.90
3684;DHT22;1858;48.716;9.648;2022-09-01T06:08:37;17.20;99.90
3684;DHT22;1858;48.716;9.648;2022-09-01T06:11:04;17.30;99.90
3684;DHT22;1858;48.716;9.648;2022-09-01T06:13:33;17.40;99.90
3684;DHT22;1858;48.716;9.648;2022-09-01T06:16:01;17.50;99.90
3684;DHT22;1858;48.716;9.648;2022-09-01T06:18:50;17.60;99.90
3684;DHT22;1858;48.716;9.648;2022-09-01T06:21:38;17.80;34.10
3684;DHT22;1858;48.716;9.648;2022-09-01T06:26:54;18.20;1.00
3684;DHT22;1858;48.716;9.648;2022-09-01T06:29:22;18.30;1.00
3684;DHT22;1858;48.716;9.648;2022-09-01T06:31:49;18.40;1.00
3684;DHT22;1858;48.716;9.648;2022-09-01T06:34:18;18.60;1.00
3684;DHT22;1858;48.716;9.648;2022-09-01T06:36:46;18.80;1.00
3684;DHT22;1858;48.716;9.648;2022-09-01T06:39:16;18.80;1.00
3684;DHT22;1858;48.716;9.648;2022-09-01T06:41:47;18.80;1.00
3684;DHT22;1858;48.716;9.648;2022-09-01T06:44:15;19.00;1.00
3684;DHT22;1858;48.716;9.648;2022-09-01T06:46:44;19.10;1.00
3684;DHT22;1858;48.716;9.648;2022-09-01T06:49:11;19.30;99.90
3684;DHT22;1858;48.716;9.648;2022-09-01T06:51:39;19.60;99.90
3684;DHT22;1858;48.716;9.648;2022-09-01T06:54:07;19.80;99.90
3684;DHT22;1858;48.716;9.648;2022-09-01T06:59:27;20.10;99.90
3684;DHT22;1858;48.716;9.648;2022-09-01T07:01:55;20.50;99.90
3684;DHT22;1858;48.716;9.648;2022-09-01T07:04:25;20.70;99.90
3684;DHT22;1858;48.716;9.648;2022-09-01T07:09:41;21.20;99.90
3684;DHT22;1858;48.716;9.648;2022-09-01T07:12:09;21.20;99.90
3684;DHT22;1858;48.716;9.648;2022-09-01T07:14:37;21.60;99.90
3684;DHT22;1858;48.716;9.648;2022-09-01T07:17:06;21.80;71.70
3684;DHT22;1858;48.716;9.648;2022-09-01T07:19:33;21.80;34.30
3684;DHT22;1858;48.716;9.648;2022-09-01T07:22:03;21.70;37.20
3684;DHT22;1858;48.716;9.648;2022-09-01T07:24:30;21.90;35.80
3684;DHT22;1858;48.716;9.648;2022-09-01T07:26:58;21.90;24.10
3684;DHT22;1858;48.716;9.648;2022-09-01T07:29:26;21.80;16.10
3684;DHT22;1858;48.716;9.648;2022-09-01T07:31:54;21.80;35.90
3684;DHT22;1858;48.716;9.648;2022-09-01T07:34:22;21.80;7.40
3684;DHT22;1858;48.716;9.648;2022-09-01T07:36:51;21.70;1.00
3684;DHT22;1858;48.716;9.648;2022-09-01T07:39:40;21.80;1.00
3684;DHT22;1858;48.716;9.648;2022-09-01T07:42:11;22.00;9.10
3684;DHT22;1858;48.716;9.648;2022-09-01T07:44:41;22.00;1.00
3684;DHT22;1858;48.716;9.648;2022-09-01T07:47:10;22.00;1.00
3684;DHT22;1858;48.716;9.648;2022-09-01T07:49:40;22.00;1.00
3684;DHT22;1858;48.716;9.648;2022-09-01T07:52:07;21.90;1.00
3684;DHT22;1858;48.716;9.648;2022-09-01T07:54:35;21.70;1.00
3684;DHT22;1858;48.716;9.648;2022-09-01T07:59:50;21.80;1.00
3684;DHT22;1858;48.716;9.648;2022-09-01T08:02:19;21.70;1.00
3684;DHT22;1858;48.716;9.648;2022-09-01T08:04:46;22.10;1.00
3684;DHT22;1858;48.716;9.648;2022-09-01T08:07:14;22.50;1.00
3684;DHT22;1858;48.716;9.648;2022-09-01T08:09:42;22.50;1.00
3684;DHT22;1858;48.716;9.648;2022-09-01T08:12:10;22.30;1.00
3684;DHT22;1858;48.716;9.648;2022-09-01T08:14:38;22.30;1.00
3684;DHT22;1858;48.716;9.648;2022-09-01T08:17:05;22.10;1.00
3684;DHT22;1858;48.716;9.648;2022-09-01T08:19:33;21.90;1.00
3684;DHT22;1858;48.716;9.648;2022-09-01T08:22:01;21.70;1.00
3684;DHT22;1858;48.716;9.648;2022-09-01T08:24:28;21.50;1.00
3684;DHT22;1858;48.716;9.648;2022-09-01T08:26:56;21.60;1.00
3684;DHT22;1858;48.716;9.648;2022-09-01T08:29:24;21.60;1.00
3684;DHT22;1858;48.716;9.648;2022-09-01T08:31:52;21.80;1.00
3684;DHT22;1858;48.716;9.648;2022-09-01T08:34:20;21.90;1.00
3684;DHT22;1858;48.716;9.648;2022-09-01T08:36:47;22.00;1.00
3684;DHT22;1858;48.716;9.648;2022-09-01T08:42:12;22.40;1.00
3684;DHT22;1858;48.716;9.648;2022-09-01T08:49:58;22.30;1.00
3684;DHT22;1858;48.716;9.648;2022-09-01T08:52:33;22.40;1.00
3684;DHT22;1858;48.716;9.648;2022-09-01T08:55:07;22.50;1.00
3684;DHT22;1858;48.716;9.648;2022-09-01T08:57:35;22.60;1.00
3684;DHT22;1858;48.716;9.648;2022-09-01T09:00:04;22.80;1.00
3684;DHT22;1858;48.716;9.648;2022-09-01T09:05:23;23.20;1.00
3684;DHT22;1858;48.716;9.648;2022-09-01T09:16:15;23.30;1.00
3684;DHT22;1858;48.716;9.648;2022-09-01T09:18:48;23.80;1.00
3684;DHT22;1858;48.716;9.648;2022-09-01T09:21:36;24.10;1.00
3684;DHT22;1858;48.716;9.648;2022-09-01T09:24:23;24.30;1.00
3684;DHT22;1858;48.716;9.648;2022-09-01T09:27:04;24.40;1.00
3684;DHT22;1858;48.716;9.648;2022-09-01T09:29:32;24.60;1.00
3684;DHT22;1858;48.716;9.648;2022-09-01T09:32:01;24.60;1.00
3684;DHT22;1858;48.716;9.648;2022-09-01T09:34:35;24.70;1.00
3684;DHT22;1858;48.716;9.648;2022-09-01T09:37:23;24.50;1.00
3684;DHT22;1858;48.716;9.648;2022-09-01T09:42:43;23.90;1.00
3684;DHT22;1858;48.716;9.648;2022-09-01T09:45:14;23.80;1.00
3684;DHT22;1858;48.716;9.648;2022-09-01T09:47:40;23.70;1.00
3684;DHT22;1858;48.716;9.648;2022-09-01T09:50:27;23.50;1.00
3684;DHT22;1858;48.716;9.648;2022-09-01T09:58:34;23.90;1.00
3684;DHT22;1858;48.716;9.648;2022-09-01T10:01:05;24.30;1.00
3684;DHT22;1858;48.716;9.648;2022-09-01T10:03:37;25.10;1.00
3684;DHT22;1858;48.716;9.648;2022-09-01T10:06:05;26.10;1.00
3684;DHT22;1858;48.716;9.648;2022-09-01T10:08:36;26.40;1.00
3684;DHT22;1858;48.716;9.648;2022-09-01T10:11:06;26.50;1.00
3684;DHT22;1858;48.716;9.648;2022-09-01T10:13:34;26.50;1.00
3684;DHT22;1858;48.716;9.648;2022-09-01T10:16:13;27.50;1.00
3684;DHT22;1858;48.716;9.648;2022-09-01T10:18:50;27.50;99.90
3684;DHT22;1858;48.716;9.648;2022-09-01T10:21:07;27.10;99.90
3684;DHT22;1858;48.716;9.648;2022-09-01T10:26:28;26.00;1.00
3684;DHT22;1858;48.716;9.648;2022-09-01T10:28:58;25.40;1.00
3684;DHT22;1858;48.716;9.648;2022-09-01T10:31:26;24.70;1.00
3684;DHT22;1858;48.716;9.648;2022-09-01T10:36:42;24.70;1.00
3684;DHT22;1858;48.716;9.648;2022-09-01T10:39:17;25.20;1.00
3684;DHT22;1858;48.716;9.648;2022-09-01T10:44:20;26.80;1.00
3684;DHT22;1858;48.716;9.648;2022-09-01T10:46:48;27.40;99.90
3684;DHT22;1858;48.716;9.648;2022-09-01T10:52:07;27.00;99.90
3684;DHT22;1858;48.716;9.648;2022-09-01T10:57:27;26.50;99.90
3684;DHT22;1858;48.716;9.648;2022-09-01T11:08:24;28.70;99.90
3684;DHT22;1858;48.716;9.648;2022-09-01T11:13:51;28.60;99.90
3684;DHT22;1858;48.716;9.648;2022-09-01T11:16:28;28.30;99.90
3684;DHT22;1858;48.716;9.648;2022-09-01T11:22:42;27.00;99.90
3684;DHT22;1858;48.716;9.648;2022-09-01T11:30:09;26.30;99.90
3684;DHT22;1858;48.716;9.648;2022-09-01T11:33:01;26.10;99.90
3684;DHT22;1858;48.716;9.648;2022-09-01T11:35:47;25.80;99.90
3684;DHT22;1858;48.716;9.648;2022-09-01T11:38:16;25.50;99.90
3684;DHT22;1858;48.716;9.648;2022-09-01T11:40:52;25.20;99.90
3684;DHT22;1858;48.716;9.648;2022-09-01T11:43:14;25.10;99.90
3684;DHT22;1858;48.716;9.648;2022-09-01T11:48:29;25.30;99.90
3684;DHT22;1858;48.716;9.648;2022-09-01T11:50:58;25.50;99.90
3684;DHT22;1858;48.716;9.648;2022-09-01T11:53:27;25.70;99.90
3684;DHT22;1858;48.716;9.648;2022-09-01T11:55:55;26.00;99.90
3684;DHT22;1858;48.716;9.648;2022-09-01T12:00:57;26.30;99.90
3684;DHT22;1858;48.716;9.648;2022-09-01T12:03:26;26.30;99.90
3684;DHT22;1858;48.716;9.648;2022-09-01T12:05:56;26.30;99.90
3684;DHT22;1858;48.716;9.648;2022-09-01T12:08:27;26.40;99.90
3684;DHT22;1858;48.716;9.648;2022-09-01T12:11:09;26.30;99.90
3684;DHT22;1858;48.716;9.648;2022-09-01T12:13:38;26.40;99.90
3684;DHT22;1858;48.716;9.648;2022-09-01T12:16:07;26.50;99.90
3684;DHT22;1858;48.716;9.648;2022-09-01T12:18:36;26.50;99.90
3684;DHT22;1858;48.716;9.648;2022-09-01T12:21:06;26.60;99.90
3684;DHT22;1858;48.716;9.648;2022-09-01T12:23:38;26.60;99.90
3684;DHT22;1858;48.716;9.648;2022-09-01T12:26:12;26.50;99.90
3684;DHT22;1858;48.716;9.648;2022-09-01T12:28:40;26.50;99.90
3684;DHT22;1858;48.716;9.648;2022-09-01T12:31:12;26.30;99.90
3684;DHT22;1858;48.716;9.648;2022-09-01T12:33:45;26.30;99.90
3684;DHT22;1858;48.716;9.648;2022-09-01T12:38:48;25.80;99.90
3684;DHT22;1858;48.716;9.648;2022-09-01T12:43:52;25.40;99.90
3684;DHT22;1858;48.716;9.648;2022-09-01T12:46:39;25.10;99.90
3684;DHT22;1858;48.716;9.648;2022-09-01T12:57:50;24.80;99.90
3684;DHT22;1858;48.716;9.648;2022-09-01T13:00:20;24.90;99.90
3684;DHT22;1858;48.716;9.648;2022-09-01T13:03:11;25.10;99.90
3684;DHT22;1858;48.716;9.648;2022-09-01T13:08:10;25.10;99.90
3684;DHT22;1858;48.716;9.648;2022-09-01T13:10:39;25.20;99.90
3684;DHT22;1858;48.716;9.648;2022-09-01T13:13:08;25.10;99.90
3684;DHT22;1858;48.716;9.648;2022-09-01T13:18:25;25.20;99.90
3684;DHT22;1858;48.716;9.648;2022-09-01T13:20:53;25.10;99.90
3684;DHT22;1858;48.716;9.648;2022-09-01T13:28:57;26.00;99.90
3684;DHT22;1858;48.716;9.648;2022-09-01T13:34:12;26.20;99.90
3684;DHT22;1858;48.716;9.648;2022-09-01T13:36:39;26.40;99.90
3684;DHT22;1858;48.716;9.648;2022-09-01T13:39:07;26.30;99.90
3684;DHT22;1858;48.716;9.648;2022-09-01T13:41:35;25.90;99.90
3684;DHT22;1858;48.716;9.648;2022-09-01T13:44:03;25.70;99.90
3684;DHT22;1858;48.716;9.648;2022-09-01T13:46:31;25.30;99.90
3684;DHT22;1858;48.716;9.648;2022-09-01T13:48:58;25.10;99.90
3684;DHT22;1858;48.716;9.648;2022-09-01T13:51:26;24.80;99.90
3684;DHT22;1858;48.716;9.648;2022-09-01T13:53:53;24.50;99.90
3684;DHT22;1858;48.716;9.648;2022-09-01T13:56:21;24.20;99.90
3684;DHT22;1858;48.716;9.648;2022-09-01T14:01:36;23.70;99.90
3684;DHT22;1858;48.716;9.648;2022-09-01T14:09:37;23.50;99.90
3684;DHT22;1858;48.716;9.648;2022-09-01T14:12:05;23.70;99.90
3684;DHT22;1858;48.716;9.648;2022-09-01T14:14:32;23.90;99.90
3684;DHT22;1858;48.716;9.648;2022-09-01T14:17:00;24.10;99.90
3684;DHT22;1858;48.716;9.648;2022-09-01T14:19:29;24.20;99.90
3684;DHT22;1858;48.716;9.648;2022-09-01T14:21:56;24.30;99.90
3684;DHT22;1858;48.716;9.648;2022-09-01T14:24:24;24.40;99.90
3684;DHT22;1858;48.716;9.648;2022-09-01T14:26:52;24.50;99.90
3684;DHT22;1858;48.716;9.648;2022-09-01T14:29:19;24.40;99.90
3684;DHT22;1858;48.716;9.648;2022-09-01T14:31:47;24.40;99.90
3684;DHT22;1858;48.716;9.648;2022-09-01T14:37:03;24.20;99.90
3684;DHT22;1858;48.716;9.648;2022-09-01T14:39:31;24.10;99.90
3684;DHT22;1858;48.716;9.648;2022-09-01T14:41:59;24.10;99.90
3684;DHT22;1858;48.716;9.648;2022-09-01T14:44:26;23.90;99.90
3684;DHT22;1858;48.716;9.648;2022-09-01T14:46:54;23.90;99.90
3684;DHT22;1858;48.716;9.648;2022-09-01T14:49:22;23.90;99.90
3684;DHT22;1858;48.716;9.648;2022-09-01T14:51:49;24.00;99.90
3684;DHT22;1858;48.716;9.648;2022-09-01T14:54:17;24.20;99.90
3684;DHT22;1858;48.716;9.648;2022-09-01T14:56:45;24.40;99.90
3684;DHT22;1858;48.716;9.648;2022-09-01T14:59:13;24.60;99.90
3684;DHT22;1858;48.716;9.648;2022-09-01T15:01:41;24.70;99.90
3684;DHT22;1858;48.716;9.648;2022-09-01T15:04:09;24.60;99.90
3684;DHT22;1858;48.716;9.648;2022-09-01T15:06:36;24.60;99.90
3684;DHT22;1858;48.716;9.648;2022-09-01T15:09:04;24.60;99.90
3684;DHT22;1858;48.716;9.648;2022-09-01T15:11:31;24.40;99.90
3684;DHT22;1858;48.716;9.648;2022-09-01T15:13:59;24.30;99.90
3684;DHT22;1858;48.716;9.648;2022-09-01T15:16:27;24.20;99.90
3684;DHT22;1858;48.716;9.648;2022-09-01T15:18:54;24.00;99.90
3684;DHT22;1858;48.716;9.648;2022-09-01T15:21:30;23.90;99.90
3684;DHT22;1858;48.716;9.648;2022-09-01T15:23:56;23.90;99.90
3684;DHT22;1858;48.716;9.648;2022-09-01T15:26:24;23.90;99.90
3684;DHT22;1858;48.716;9.648;2022-09-01T15:28:52;23.90;99.90
3684;DHT22;1858;48.716;9.648;2022-09-01T15:31:19;24.00;99.90
3684;DHT22;1858;48.716;9.648;2022-09-01T15:33:49;23.90;99.90
3684;DHT22;1858;48.716;9.648;2022-09-01T15:39:06;23.70;99.90
3684;DHT22;1858;48.716;9.648;2022-09-01T15:41:34;23.60;99.90
3684;DHT22;1858;48.716;9.648;2022-09-01T15:46:49;23.60;99.90
3684;DHT22;1858;48.716;9.648;2022-09-01T15:49:16;23.60;99.90
3684;DHT22;1858;48.716;9.648;2022-09-01T15:51:44;23.50;99.90
3684;DHT22;1858;48.716;9.648;2022-09-01T15:54:17;23.50;99.90
3684;DHT22;1858;48.716;9.648;2022-09-01T15:56:41;23.50;99.90
3684;DHT22;1858;48.716;9.648;2022-09-01T15:59:09;23.60;99.90
3684;DHT22;1858;48.716;9.648;2022-09-01T16:01:38;23.60;99.90
3684;DHT22;1858;48.716;9.648;2022-09-01T16:04:07;23.70;99.90
3684;DHT22;1858;48.716;9.648;2022-09-01T16:06:37;23.70;99.90
3684;DHT22;1858;48.716;9.648;2022-09-01T16:11:52;23.80;99.90
3684;DHT22;1858;48.716;9.648;2022-09-01T16:14:20;23.90;99.90
3684;DHT22;1858;48.716;9.648;2022-09-01T16:16:54;23.90;99.90
3684;DHT22;1858;48.716;9.648;2022-09-01T16:19:29;24.00;99.90
3684;DHT22;1858;48.716;9.648;2022-09-01T16:22:12;24.00;99.90
3684;DHT22;1858;48.716;9.648;2022-09-01T16:24:42;23.90;99.90
3684;DHT22;1858;48.716;9.648;2022-09-01T16:30:02;24.00;99.90
3684;DHT22;1858;48.716;9.648;2022-09-01T16:32:30;24.00;99.90
3684;DHT22;1858;48.716;9.648;2022-09-01T16:34:59;23.90;99.90
3684;DHT22;1858;48.716;9.648;2022-09-01T16:42:52;23.70;99.90
3684;DHT22;1858;48.716;9.648;2022-09-01T16:45:35;23.50;99.90
3684;DHT22;1858;48.716;9.648;2022-09-01T16:53:57;23.10;99.90
3684;DHT22;1858;48.716;9.648;2022-09-01T16:56:34;22.90;99.90
3684;DHT22;1858;48.716;9.648;2022-09-01T17:07:04;22.20;99.90
3684;DHT22;1858;48.716;9.648;2022-09-01T17:12:27;21.90;99.90
3684;DHT22;1858;48.716;9.648;2022-09-01T17:20:47;21.70;99.90
3684;DHT22;1858;48.716;9.648;2022-09-01T17:23:36;21.60;99.90
3684;DHT22;1858;48.716;9.648;2022-09-01T17:26:06;21.50;99.90
3684;DHT22;1858;48.716;9.648;2022-09-01T17:28:35;21.50;99.90
3684;DHT22;1858;48.716;9.648;2022-09-01T17:31:08;21.30;99.90
3684;DHT22;1858;48.716;9.648;2022-09-01T17:41:58;21.10;99.90
3684;DHT22;1858;48.716;9.648;2022-09-01T17:49:49;21.00;1.00
3684;DHT22;1858;48.716;9.648;2022-09-01T17:54:52;20.90;1.00
3684;DHT22;1858;48.716;9.648;2022-09-01T18:02:49;20.40;1.00
3684;DHT22;1858;48.716;9.648;2022-09-01T18:05:16;20.40;1.00
3684;DHT22;1858;48.716;9.648;2022-09-01T18:10:39;20.30;1.00
3684;DHT22;1858;48.716;9.648;2022-09-01T18:15:54;20.20;1.00
3684;DHT22;1858;48.716;9.648;2022-09-01T18:23:42;19.80;1.00
3684;DHT22;1858;48.716;9.648;2022-09-01T18:26:29;19.80;1.00
3684;DHT22;1858;48.716;9.648;2022-09-01T18:29:03;19.80;1.00
3684;DHT22;1858;48.716;9.648;2022-09-01T18:36:55;19.50;1.00
3684;DHT22;1858;48.716;9.648;2022-09-01T18:44:59;19.20;1.00
3684;DHT22;1858;48.716;9.648;2022-09-01T18:48:20;19.30;1.00
3684;DHT22;1858;48.716;9.648;2022-09-01T18:58:50;19.10;1.00
3684;DHT22;1858;48.716;9.648;2022-09-01T19:01:31;19.00;1.00
3684;DHT22;1858;48.716;9.648;2022-09-01T19:04:32;18.90;1.00
3684;DHT22;1858;48.716;9.648;2022-09-01T19:09:55;18.80;1.00
3684;DHT22;1858;48.716;9.648;2022-09-01T19:12:29;18.80;1.00
3684;DHT22;1858;48.716;9.648;2022-09-01T19:15:00;18.80;1.00
3684;DHT22;1858;48.716;9.648;2022-09-01T19:17:35;18.80;1.00
3684;DHT22;1858;48.716;9.648;2022-09-01T19:20:06;18.70;1.00
3684;DHT22;1858;48.716;9.648;2022-09-01T19:25:39;18.60;1.00
3684;DHT22;1858;48.716;9.648;2022-09-01T19:28:16;18.60;1.00
3684;DHT22;1858;48.716;9.648;2022-09-01T19:30:45;18.60;1.00
3684;DHT22;1858;48.716;9.648;2022-09-01T19:33:14;18.60;1.00
3684;DHT22;1858;48.716;9.648;2022-09-01T19:35:43;18.50;1.00
3684;DHT22;1858;48.716;9.648;2022-09-01T19:38:12;18.50;1.00
3684;DHT22;1858;48.716;9.648;2022-09-01T19:40:40;18.50;1.00
3684;DHT22;1858;48.716;9.648;2022-09-01T19:43:10;18.50;1.00
3684;DHT22;1858;48.716;9.648;2022-09-01T19:51:33;18.40;1.00
3684;DHT22;1858;48.716;9.648;2022-09-01T19:56:47;18.30;1.00
3684;DHT22;1858;48.716;9.648;2022-09-01T19:59:45;18.20;1.00
3684;DHT22;1858;48.716;9.648;2022-09-01T20:02:22;18.20;1.00
3684;DHT22;1858;48.716;9.648;2022-09-01T20:07:53;18.00;1.00
3684;DHT22;1858;48.716;9.648;2022-09-01T20:13:30;17.90;1.00
3684;DHT22;1858;48.716;9.648;2022-09-01T20:18:48;17.60;1.00
3684;DHT22;1858;48.716;9.648;2022-09-01T20:21:15;17.50;1.00
3684;DHT22;1858;48.716;9.648;2022-09-01T20:26:22;17.60;1.00
3684;DHT22;1858;48.716;9.648;2022-09-01T20:28:54;17.70;1.00
3684;DHT22;1858;48.716;9.648;2022-09-01T20:31:28;17.60;1.00
3684;DHT22;1858;48.716;9.648;2022-09-01T20:39:38;17.60;1.00
3684;DHT22;1858;48.716;9.648;2022-09-01T20:45:09;17.70;1.00
3684;DHT22;1858;48.716;9.648;2022-09-01T20:48:09;17.70;1.00
3684;DHT22;1858;48.716;9.648;2022-09-01T20:53:22;17.70;1.00
3684;DHT22;1858;48.716;9.648;2022-09-01T20:58:43;17.80;1.00
3684;DHT22;1858;48.716;9.648;2022-09-01T21:03:52;17.70;1.00
3684;DHT22;1858;48.716;9.648;2022-09-01T21:11:45;17.60;1.00
3684;DHT22;1858;48.716;9.648;2022-09-01T21:22:13;17.40;1.00
3684;DHT22;1858;48.716;9.648;2022-09-01T21:24:42;17.40;1.00
3684;DHT22;1858;48.716;9.648;2022-09-01T21:27:20;17.40;1.00
3684;DHT22;1858;48.716;9.648;2022-09-01T21:29:53;17.40;1.00
3684;DHT22;1858;48.716;9.648;2022-09-01T21:32:39;17.40;1.00
3684;DHT22;1858;48.716;9.648;2022-09-01T21:35:09;17.40;1.00
3684;DHT22;1858;48.716;9.648;2022-09-01T21:37:36;17.40;1.00
3684;DHT22;1858;48.716;9.648;2022-09-01T21:40:04;17.30;1.00
3684;DHT22;1858;48.716;9.648;2022-09-01T21:42:39;17.30;1.00
3684;DHT22;1858;48.716;9.648;2022-09-01T21:45:08;17.30;1.00
3684;DHT22;1858;48.716;9.648;2022-09-01T21:47:36;17.30;1.00
3684;DHT22;1858;48.716;9.648;2022-09-01T21:50:04;17.30;1.00
3684;DHT22;1858;48.716;9.648;2022-09-01T21:52:32;17.30;1.00